Aérodrome :
LOGIN :

S'inscrire | Disclaimer

   EN    FR    IT 

 










Légende :    VFR   VFR Marginal   IFR   IFR Intensif   IFR Très Intensif
Visi : 
Plafond : 
>= 8 km
>= 3000ft
5 à 8 km
1000 à 3000 ft
1500m à 5 km
500 à 1000 ft
800 à 1500m
200 à 500 ft
< 800m
< 200 ft
Symboles :   Orages  Brouillard  Fortes neiges  Fortes précipitations  Vent > 20 kt
SIGMETs :   Divers  Orages  Givrage  Turbulence  Onde Orograph.  Cendres Volcan.







- Altitude de l'aérodrome : 1367 ft
- Code IATA : FDH


EDNY - Friedrichshafen

DERNIER METAR :
  • 211820Z 21007KT 6000 -RA SCT037 OVC047 11/11 Q1015

METARs EXPIRÉS :
  • 211750Z 22009KT 8000 -RA SCT039 BKN044 OVC055 11/11 Q1015
  • 211720Z 22007KT 6000 -RA BKN040 OVC049 11/11 Q1015
  • 211650Z 22009KT 7000 -RA BKN034 OVC049 11/11 Q1015
  • 211620Z 22008KT 9999 -RA SCT038 OVC045 11/10 Q1015
  • 211550Z 22009KT 8000 -RA BKN040 BKN048 OVC058 11/10 Q1014

TAF TAF EDNY
Valide du 21 à 18h jusqu'au 22 à 18h UTC


211700Z 2118/2218 24006KT 8000 BKN030
TEMPO 2118/2206 4000 RA BKN012
Pas de NOTAMs connus pour ce terrain.



MET'MAP, la Météo Aéronautique d'un coup d'oeil ! - Copyright ORBIFLY Décembre 2007 - Disclaimer

ORBIFLY MET'MAP TEAM :

Programmation & Développement : Alexandra Zaïnal
Conception & Développement : Baudouin d'Aumeries
Co-Programmation & Développement : Marc-Olivier Méhu
Soutien technique & logistique : Manuel Goepfert

Contact : metmap@orbifly.com




SOURCES & CREDITS :

   NOAA